sensor_id;sensor_type;location;lat;lon;timestamp;P1;durP1;ratioP1;P2;durP2;ratioP2
42662;SDS011;44330;51.360;6.686;2022-07-17T00:01:31;10.55;;;1.70;;
42662;SDS011;44330;51.360;6.686;2022-07-17T00:03:57;6.40;;;2.30;;
42662;SDS011;44330;51.360;6.686;2022-07-17T00:06:22;4.97;;;1.52;;
42662;SDS011;44330;51.360;6.686;2022-07-17T00:08:48;5.05;;;1.80;;
42662;SDS011;44330;51.360;6.686;2022-07-17T00:11:13;11.38;;;2.00;;
42662;SDS011;44330;51.360;6.686;2022-07-17T00:13:39;7.40;;;1.90;;
42662;SDS011;44330;51.360;6.686;2022-07-17T00:16:05;6.43;;;1.48;;
42662;SDS011;44330;51.360;6.686;2022-07-17T00:18:31;7.40;;;1.67;;
42662;SDS011;44330;51.360;6.686;2022-07-17T00:20:56;5.03;;;1.90;;
42662;SDS011;44330;51.360;6.686;2022-07-17T00:23:22;9.23;;;1.65;;
42662;SDS011;44330;51.360;6.686;2022-07-17T00:25:47;6.80;;;1.90;;
42662;SDS011;44330;51.360;6.686;2022-07-17T00:28:13;8.20;;;1.75;;
42662;SDS011;44330;51.360;6.686;2022-07-17T00:30:39;6.22;;;1.80;;
42662;SDS011;44330;51.360;6.686;2022-07-17T00:33:04;6.32;;;2.10;;
42662;SDS011;44330;51.360;6.686;2022-07-17T00:35:30;7.25;;;1.88;;
42662;SDS011;44330;51.360;6.686;2022-07-17T00:37:56;10.68;;;2.08;;
42662;SDS011;44330;51.360;6.686;2022-07-17T00:40:22;6.47;;;2.00;;
42662;SDS011;44330;51.360;6.686;2022-07-17T00:42:49;6.25;;;1.95;;
42662;SDS011;44330;51.360;6.686;2022-07-17T00:45:15;9.02;;;2.20;;
42662;SDS011;44330;51.360;6.686;2022-07-17T00:47:49;10.98;;;2.15;;
42662;SDS011;44330;51.360;6.686;2022-07-17T00:50:16;7.70;;;2.20;;
42662;SDS011;44330;51.360;6.686;2022-07-17T00:52:41;5.65;;;1.92;;
42662;SDS011;44330;51.360;6.686;2022-07-17T00:55:07;9.40;;;2.08;;
42662;SDS011;44330;51.360;6.686;2022-07-17T00:57:33;6.28;;;2.05;;
42662;SDS011;44330;51.360;6.686;2022-07-17T01:00:01;9.05;;;2.00;;
42662;SDS011;44330;51.360;6.686;2022-07-17T01:02:33;4.55;;;1.77;;
42662;SDS011;44330;51.360;6.686;2022-07-17T01:04:59;5.68;;;1.85;;
42662;SDS011;44330;51.360;6.686;2022-07-17T01:07:24;7.03;;;1.85;;
42662;SDS011;44330;51.360;6.686;2022-07-17T01:09:50;5.82;;;2.15;;
42662;SDS011;44330;51.360;6.686;2022-07-17T01:12:15;7.07;;;2.20;;
42662;SDS011;44330;51.360;6.686;2022-07-17T01:14:42;7.38;;;2.38;;
42662;SDS011;44330;51.360;6.686;2022-07-17T01:17:08;8.90;;;2.30;;
42662;SDS011;44330;51.360;6.686;2022-07-17T01:19:34;5.90;;;2.28;;
42662;SDS011;44330;51.360;6.686;2022-07-17T01:22:00;8.32;;;2.38;;
42662;SDS011;44330;51.360;6.686;2022-07-17T01:24:25;5.40;;;1.73;;
42662;SDS011;44330;51.360;6.686;2022-07-17T01:26:51;5.32;;;2.10;;
42662;SDS011;44330;51.360;6.686;2022-07-17T01:29:17;6.00;;;2.28;;
42662;SDS011;44330;51.360;6.686;2022-07-17T01:31:42;8.20;;;2.53;;
42662;SDS011;44330;51.360;6.686;2022-07-17T01:34:09;9.65;;;2.20;;
42662;SDS011;44330;51.360;6.686;2022-07-17T01:36:37;4.90;;;2.30;;
42662;SDS011;44330;51.360;6.686;2022-07-17T01:39:03;5.82;;;2.08;;
42662;SDS011;44330;51.360;6.686;2022-07-17T01:41:29;7.53;;;2.05;;
42662;SDS011;44330;51.360;6.686;2022-07-17T01:43:55;6.30;;;2.33;;
42662;SDS011;44330;51.360;6.686;2022-07-17T01:46:21;9.57;;;2.55;;
42662;SDS011;44330;51.360;6.686;2022-07-17T01:48:46;7.45;;;2.05;;
42662;SDS011;44330;51.360;6.686;2022-07-17T01:51:12;8.63;;;2.70;;
42662;SDS011;44330;51.360;6.686;2022-07-17T01:53:37;11.82;;;2.13;;
42662;SDS011;44330;51.360;6.686;2022-07-17T01:56:03;5.93;;;2.70;;
42662;SDS011;44330;51.360;6.686;2022-07-17T01:58:29;11.27;;;1.92;;
42662;SDS011;44330;51.360;6.686;2022-07-17T02:00:54;8.25;;;2.65;;
42662;SDS011;44330;51.360;6.686;2022-07-17T02:03:20;11.00;;;2.22;;
42662;SDS011;44330;51.360;6.686;2022-07-17T02:05:46;10.07;;;1.95;;
42662;SDS011;44330;51.360;6.686;2022-07-17T02:08:11;7.38;;;2.30;;
42662;SDS011;44330;51.360;6.686;2022-07-17T02:10:37;7.63;;;2.10;;
42662;SDS011;44330;51.360;6.686;2022-07-17T02:13:03;8.07;;;2.08;;
42662;SDS011;44330;51.360;6.686;2022-07-17T02:15:29;9.05;;;2.00;;
42662;SDS011;44330;51.360;6.686;2022-07-17T02:17:55;4.40;;;1.73;;
42662;SDS011;44330;51.360;6.686;2022-07-17T02:20:21;4.93;;;1.60;;
42662;SDS011;44330;51.360;6.686;2022-07-17T02:22:47;8.77;;;2.53;;
42662;SDS011;44330;51.360;6.686;2022-07-17T02:25:13;8.00;;;1.77;;
42662;SDS011;44330;51.360;6.686;2022-07-17T02:27:39;8.23;;;2.25;;
42662;SDS011;44330;51.360;6.686;2022-07-17T02:30:06;7.57;;;2.22;;
42662;SDS011;44330;51.360;6.686;2022-07-17T02:32:35;4.78;;;1.92;;
42662;SDS011;44330;51.360;6.686;2022-07-17T02:35:01;8.98;;;2.00;;
42662;SDS011;44330;51.360;6.686;2022-07-17T02:37:27;5.40;;;1.80;;
42662;SDS011;44330;51.360;6.686;2022-07-17T02:39:52;4.65;;;1.73;;
42662;SDS011;44330;51.360;6.686;2022-07-17T02:42:22;6.28;;;2.30;;
42662;SDS011;44330;51.360;6.686;2022-07-17T02:44:48;3.42;;;1.63;;
42662;SDS011;44330;51.360;6.686;2022-07-17T02:47:21;9.27;;;2.03;;
42662;SDS011;44330;51.360;6.686;2022-07-17T02:49:54;7.75;;;2.30;;
42662;SDS011;44330;51.360;6.686;2022-07-17T02:52:20;7.03;;;2.17;;
42662;SDS011;44330;51.360;6.686;2022-07-17T02:54:46;5.25;;;2.17;;
42662;SDS011;44330;51.360;6.686;2022-07-17T02:57:12;8.82;;;1.70;;
42662;SDS011;44330;51.360;6.686;2022-07-17T02:59:38;6.60;;;1.85;;
42662;SDS011;44330;51.360;6.686;2022-07-17T03:02:04;5.28;;;2.13;;
42662;SDS011;44330;51.360;6.686;2022-07-17T03:04:30;8.45;;;1.85;;
42662;SDS011;44330;51.360;6.686;2022-07-17T03:06:55;7.55;;;1.77;;
42662;SDS011;44330;51.360;6.686;2022-07-17T03:09:21;4.47;;;1.70;;
42662;SDS011;44330;51.360;6.686;2022-07-17T03:11:47;6.00;;;2.08;;
42662;SDS011;44330;51.360;6.686;2022-07-17T03:14:12;8.45;;;2.15;;
42662;SDS011;44330;51.360;6.686;2022-07-17T03:16:38;7.28;;;2.35;;
42662;SDS011;44330;51.360;6.686;2022-07-17T03:19:03;5.50;;;2.15;;
42662;SDS011;44330;51.360;6.686;2022-07-17T03:21:29;5.40;;;2.25;;
42662;SDS011;44330;51.360;6.686;2022-07-17T03:23:54;5.70;;;2.40;;
42662;SDS011;44330;51.360;6.686;2022-07-17T03:26:20;4.88;;;2.05;;
42662;SDS011;44330;51.360;6.686;2022-07-17T03:28:45;6.55;;;2.47;;
42662;SDS011;44330;51.360;6.686;2022-07-17T03:31:11;6.50;;;2.33;;
42662;SDS011;44330;51.360;6.686;2022-07-17T03:33:37;6.43;;;2.17;;
42662;SDS011;44330;51.360;6.686;2022-07-17T03:36:02;5.28;;;2.33;;
42662;SDS011;44330;51.360;6.686;2022-07-17T03:38:28;7.65;;;1.98;;
42662;SDS011;44330;51.360;6.686;2022-07-17T03:40:53;7.38;;;2.20;;
42662;SDS011;44330;51.360;6.686;2022-07-17T03:43:19;7.03;;;2.35;;
42662;SDS011;44330;51.360;6.686;2022-07-17T03:45:45;6.95;;;2.25;;
42662;SDS011;44330;51.360;6.686;2022-07-17T03:48:10;8.60;;;2.90;;
42662;SDS011;44330;51.360;6.686;2022-07-17T03:50:36;5.68;;;2.38;;
42662;SDS011;44330;51.360;6.686;2022-07-17T03:53:05;5.15;;;2.30;;
42662;SDS011;44330;51.360;6.686;2022-07-17T03:55:30;4.93;;;2.50;;
42662;SDS011;44330;51.360;6.686;2022-07-17T03:57:56;4.03;;;2.10;;
42662;SDS011;44330;51.360;6.686;2022-07-17T04:00:21;8.20;;;2.20;;
42662;SDS011;44330;51.360;6.686;2022-07-17T04:02:47;6.70;;;2.33;;
42662;SDS011;44330;51.360;6.686;2022-07-17T04:05:12;6.88;;;2.10;;
42662;SDS011;44330;51.360;6.686;2022-07-17T04:07:39;8.52;;;1.90;;
42662;SDS011;44330;51.360;6.686;2022-07-17T04:10:06;13.23;;;2.38;;
42662;SDS011;44330;51.360;6.686;2022-07-17T04:12:34;5.27;;;2.40;;
42662;SDS011;44330;51.360;6.686;2022-07-17T04:15:01;7.40;;;2.25;;
42662;SDS011;44330;51.360;6.686;2022-07-17T04:17:27;5.75;;;2.33;;
42662;SDS011;44330;51.360;6.686;2022-07-17T04:19:53;12.27;;;1.92;;
42662;SDS011;44330;51.360;6.686;2022-07-17T04:22:18;8.80;;;2.75;;
42662;SDS011;44330;51.360;6.686;2022-07-17T04:24:44;5.88;;;2.28;;
42662;SDS011;44330;51.360;6.686;2022-07-17T04:27:10;4.20;;;2.35;;
42662;SDS011;44330;51.360;6.686;2022-07-17T04:29:36;4.55;;;2.50;;
42662;SDS011;44330;51.360;6.686;2022-07-17T04:32:02;6.60;;;2.15;;
42662;SDS011;44330;51.360;6.686;2022-07-17T04:34:28;9.75;;;2.75;;
42662;SDS011;44330;51.360;6.686;2022-07-17T04:36:54;7.75;;;2.47;;
42662;SDS011;44330;51.360;6.686;2022-07-17T04:39:20;6.15;;;1.83;;
42662;SDS011;44330;51.360;6.686;2022-07-17T04:41:45;5.57;;;2.25;;
42662;SDS011;44330;51.360;6.686;2022-07-17T04:44:11;12.77;;;2.55;;
42662;SDS011;44330;51.360;6.686;2022-07-17T04:46:37;7.55;;;2.70;;
42662;SDS011;44330;51.360;6.686;2022-07-17T04:49:03;8.80;;;2.70;;
42662;SDS011;44330;51.360;6.686;2022-07-17T04:51:28;5.05;;;2.22;;
42662;SDS011;44330;51.360;6.686;2022-07-17T04:53:54;14.18;;;2.53;;
42662;SDS011;44330;51.360;6.686;2022-07-17T04:56:19;6.45;;;2.63;;
42662;SDS011;44330;51.360;6.686;2022-07-17T04:58:45;8.75;;;2.88;;
42662;SDS011;44330;51.360;6.686;2022-07-17T05:01:10;13.43;;;3.33;;
42662;SDS011;44330;51.360;6.686;2022-07-17T05:03:36;9.05;;;2.90;;
42662;SDS011;44330;51.360;6.686;2022-07-17T05:06:02;7.07;;;2.45;;
42662;SDS011;44330;51.360;6.686;2022-07-17T05:08:28;10.00;;;2.40;;
42662;SDS011;44330;51.360;6.686;2022-07-17T05:10:54;14.35;;;2.72;;
42662;SDS011;44330;51.360;6.686;2022-07-17T05:13:19;10.88;;;3.08;;
42662;SDS011;44330;51.360;6.686;2022-07-17T05:15:44;9.93;;;3.03;;
42662;SDS011;44330;51.360;6.686;2022-07-17T05:18:10;8.90;;;2.97;;
42662;SDS011;44330;51.360;6.686;2022-07-17T05:20:36;12.90;;;3.03;;
42662;SDS011;44330;51.360;6.686;2022-07-17T05:23:04;7.22;;;2.40;;
42662;SDS011;44330;51.360;6.686;2022-07-17T05:25:30;6.85;;;2.38;;
42662;SDS011;44330;51.360;6.686;2022-07-17T05:27:55;11.55;;;3.10;;
42662;SDS011;44330;51.360;6.686;2022-07-17T05:30:21;13.65;;;3.13;;
42662;SDS011;44330;51.360;6.686;2022-07-17T05:32:46;8.65;;;3.00;;
42662;SDS011;44330;51.360;6.686;2022-07-17T05:35:12;12.82;;;3.03;;
42662;SDS011;44330;51.360;6.686;2022-07-17T05:37:38;14.00;;;3.80;;
42662;SDS011;44330;51.360;6.686;2022-07-17T05:40:03;10.23;;;2.58;;
42662;SDS011;44330;51.360;6.686;2022-07-17T05:42:29;12.35;;;2.70;;
42662;SDS011;44330;51.360;6.686;2022-07-17T05:44:55;10.13;;;3.08;;
42662;SDS011;44330;51.360;6.686;2022-07-17T05:47:20;7.60;;;2.65;;
42662;SDS011;44330;51.360;6.686;2022-07-17T05:49:46;9.02;;;2.38;;
42662;SDS011;44330;51.360;6.686;2022-07-17T05:52:11;10.43;;;3.15;;
42662;SDS011;44330;51.360;6.686;2022-07-17T05:54:37;11.50;;;3.00;;
42662;SDS011;44330;51.360;6.686;2022-07-17T05:57:03;5.75;;;2.28;;
42662;SDS011;44330;51.360;6.686;2022-07-17T05:59:28;9.32;;;2.17;;
42662;SDS011;44330;51.360;6.686;2022-07-17T06:01:54;12.15;;;3.03;;
42662;SDS011;44330;51.360;6.686;2022-07-17T06:04:20;8.50;;;2.45;;
42662;SDS011;44330;51.360;6.686;2022-07-17T06:06:45;7.65;;;2.28;;
42662;SDS011;44330;51.360;6.686;2022-07-17T06:09:11;12.75;;;2.72;;
42662;SDS011;44330;51.360;6.686;2022-07-17T06:11:36;10.23;;;2.45;;
42662;SDS011;44330;51.360;6.686;2022-07-17T06:14:02;8.05;;;2.22;;
42662;SDS011;44330;51.360;6.686;2022-07-17T06:16:27;9.95;;;1.90;;
42662;SDS011;44330;51.360;6.686;2022-07-17T06:18:53;7.50;;;2.03;;
42662;SDS011;44330;51.360;6.686;2022-07-17T06:21:19;4.07;;;1.30;;
42662;SDS011;44330;51.360;6.686;2022-07-17T06:23:44;5.90;;;1.90;;
42662;SDS011;44330;51.360;6.686;2022-07-17T06:26:10;8.50;;;1.92;;
42662;SDS011;44330;51.360;6.686;2022-07-17T06:28:36;8.63;;;1.92;;
42662;SDS011;44330;51.360;6.686;2022-07-17T06:31:02;5.30;;;1.83;;
42662;SDS011;44330;51.360;6.686;2022-07-17T06:33:27;6.47;;;2.15;;
42662;SDS011;44330;51.360;6.686;2022-07-17T06:35:53;10.27;;;1.80;;
42662;SDS011;44330;51.360;6.686;2022-07-17T06:38:18;4.68;;;1.30;;
42662;SDS011;44330;51.360;6.686;2022-07-17T06:40:44;5.65;;;1.88;;
42662;SDS011;44330;51.360;6.686;2022-07-17T06:43:09;4.38;;;1.50;;
42662;SDS011;44330;51.360;6.686;2022-07-17T06:45:35;8.30;;;1.70;;
42662;SDS011;44330;51.360;6.686;2022-07-17T06:48:01;5.28;;;1.77;;
42662;SDS011;44330;51.360;6.686;2022-07-17T06:50:26;10.55;;;1.92;;
42662;SDS011;44330;51.360;6.686;2022-07-17T06:52:52;4.88;;;1.80;;
42662;SDS011;44330;51.360;6.686;2022-07-17T06:55:18;10.52;;;2.80;;
42662;SDS011;44330;51.360;6.686;2022-07-17T06:57:43;5.82;;;1.80;;
42662;SDS011;44330;51.360;6.686;2022-07-17T07:00:09;7.95;;;2.33;;
42662;SDS011;44330;51.360;6.686;2022-07-17T07:02:35;4.63;;;1.58;;
42662;SDS011;44330;51.360;6.686;2022-07-17T07:05:01;5.72;;;2.00;;
42662;SDS011;44330;51.360;6.686;2022-07-17T07:07:27;8.32;;;2.08;;
42662;SDS011;44330;51.360;6.686;2022-07-17T07:09:53;6.88;;;2.03;;
42662;SDS011;44330;51.360;6.686;2022-07-17T07:12:18;6.50;;;1.88;;
42662;SDS011;44330;51.360;6.686;2022-07-17T07:14:44;6.28;;;2.00;;
42662;SDS011;44330;51.360;6.686;2022-07-17T07:17:09;5.72;;;1.83;;
42662;SDS011;44330;51.360;6.686;2022-07-17T07:19:35;6.38;;;1.63;;
42662;SDS011;44330;51.360;6.686;2022-07-17T07:22:00;9.70;;;2.00;;
42662;SDS011;44330;51.360;6.686;2022-07-17T07:24:26;7.63;;;1.70;;
42662;SDS011;44330;51.360;6.686;2022-07-17T07:26:51;7.63;;;2.10;;
42662;SDS011;44330;51.360;6.686;2022-07-17T07:29:17;6.72;;;1.73;;
42662;SDS011;44330;51.360;6.686;2022-07-17T07:31:43;5.68;;;2.00;;
42662;SDS011;44330;51.360;6.686;2022-07-17T07:34:09;9.18;;;2.58;;
42662;SDS011;44330;51.360;6.686;2022-07-17T07:36:34;8.18;;;2.28;;
42662;SDS011;44330;51.360;6.686;2022-07-17T07:39:00;11.77;;;2.13;;
42662;SDS011;44330;51.360;6.686;2022-07-17T07:41:25;5.88;;;2.05;;
42662;SDS011;44330;51.360;6.686;2022-07-17T07:43:51;11.93;;;2.45;;
42662;SDS011;44330;51.360;6.686;2022-07-17T07:46:16;10.50;;;3.22;;
42662;SDS011;44330;51.360;6.686;2022-07-17T07:48:42;8.65;;;3.10;;
42662;SDS011;44330;51.360;6.686;2022-07-17T07:51:07;7.70;;;2.67;;
42662;SDS011;44330;51.360;6.686;2022-07-17T07:53:33;9.18;;;2.80;;
42662;SDS011;44330;51.360;6.686;2022-07-17T07:55:58;4.57;;;2.30;;
42662;SDS011;44330;51.360;6.686;2022-07-17T07:58:24;9.98;;;3.15;;
42662;SDS011;44330;51.360;6.686;2022-07-17T08:00:50;7.18;;;2.67;;
42662;SDS011;44330;51.360;6.686;2022-07-17T08:03:15;7.68;;;2.65;;
42662;SDS011;44330;51.360;6.686;2022-07-17T08:05:42;8.90;;;2.88;;
42662;SDS011;44330;51.360;6.686;2022-07-17T08:08:08;4.82;;;2.03;;
42662;SDS011;44330;51.360;6.686;2022-07-17T08:10:34;5.43;;;1.30;;
42662;SDS011;44330;51.360;6.686;2022-07-17T08:13:00;6.97;;;1.63;;
42662;SDS011;44330;51.360;6.686;2022-07-17T08:15:25;7.65;;;1.98;;
42662;SDS011;44330;51.360;6.686;2022-07-17T08:17:51;9.27;;;1.30;;
42662;SDS011;44330;51.360;6.686;2022-07-17T08:20:18;6.35;;;1.10;;
42662;SDS011;44330;51.360;6.686;2022-07-17T08:22:46;3.45;;;1.35;;
42662;SDS011;44330;51.360;6.686;2022-07-17T08:25:12;4.63;;;0.98;;
42662;SDS011;44330;51.360;6.686;2022-07-17T08:27:39;8.50;;;1.83;;
42662;SDS011;44330;51.360;6.686;2022-07-17T08:30:06;4.53;;;1.35;;
42662;SDS011;44330;51.360;6.686;2022-07-17T08:32:34;7.72;;;2.38;;
42662;SDS011;44330;51.360;6.686;2022-07-17T08:35:01;7.65;;;1.60;;
42662;SDS011;44330;51.360;6.686;2022-07-17T08:37:29;6.93;;;1.77;;
42662;SDS011;44330;51.360;6.686;2022-07-17T08:39:55;4.00;;;1.38;;
42662;SDS011;44330;51.360;6.686;2022-07-17T08:42:21;2.47;;;1.30;;
42662;SDS011;44330;51.360;6.686;2022-07-17T08:44:46;13.63;;;2.85;;
42662;SDS011;44330;51.360;6.686;2022-07-17T08:47:13;7.88;;;1.95;;
42662;SDS011;44330;51.360;6.686;2022-07-17T08:49:46;10.20;;;2.58;;
42662;SDS011;44330;51.360;6.686;2022-07-17T08:52:14;8.40;;;1.95;;
42662;SDS011;44330;51.360;6.686;2022-07-17T08:54:41;7.13;;;2.30;;
42662;SDS011;44330;51.360;6.686;2022-07-17T08:57:07;9.45;;;2.90;;
42662;SDS011;44330;51.360;6.686;2022-07-17T08:59:34;6.95;;;2.00;;
42662;SDS011;44330;51.360;6.686;2022-07-17T09:02:00;6.22;;;2.25;;
42662;SDS011;44330;51.360;6.686;2022-07-17T09:04:26;5.22;;;1.70;;
42662;SDS011;44330;51.360;6.686;2022-07-17T09:07:02;4.78;;;1.52;;
42662;SDS011;44330;51.360;6.686;2022-07-17T09:09:30;8.55;;;2.22;;
42662;SDS011;44330;51.360;6.686;2022-07-17T09:11:57;7.80;;;2.28;;
42662;SDS011;44330;51.360;6.686;2022-07-17T09:14:35;9.35;;;2.20;;
42662;SDS011;44330;51.360;6.686;2022-07-17T09:17:06;4.40;;;1.88;;
42662;SDS011;44330;51.360;6.686;2022-07-17T09:19:34;7.40;;;1.53;;
42662;SDS011;44330;51.360;6.686;2022-07-17T09:22:11;8.48;;;2.20;;
42662;SDS011;44330;51.360;6.686;2022-07-17T09:24:48;8.68;;;2.38;;
42662;SDS011;44330;51.360;6.686;2022-07-17T09:32:24;10.52;;;2.63;;
42662;SDS011;44330;51.360;6.686;2022-07-17T09:34:53;6.13;;;1.95;;
42662;SDS011;44330;51.360;6.686;2022-07-17T09:37:26;8.80;;;1.95;;
42662;SDS011;44330;51.360;6.686;2022-07-17T09:39:56;7.82;;;2.67;;
42662;SDS011;44330;51.360;6.686;2022-07-17T09:42:29;8.13;;;2.72;;
42662;SDS011;44330;51.360;6.686;2022-07-17T09:44:56;8.73;;;2.85;;
42662;SDS011;44330;51.360;6.686;2022-07-17T09:47:34;8.55;;;2.65;;
42662;SDS011;44330;51.360;6.686;2022-07-17T09:50:02;11.82;;;2.80;;
42662;SDS011;44330;51.360;6.686;2022-07-17T09:52:30;10.27;;;2.90;;
42662;SDS011;44330;51.360;6.686;2022-07-17T09:54:58;8.88;;;2.53;;
42662;SDS011;44330;51.360;6.686;2022-07-17T09:57:26;5.05;;;2.13;;
42662;SDS011;44330;51.360;6.686;2022-07-17T09:59:57;6.03;;;2.05;;
42662;SDS011;44330;51.360;6.686;2022-07-17T10:02:25;9.43;;;2.47;;
42662;SDS011;44330;51.360;6.686;2022-07-17T10:04:51;10.00;;;2.60;;
42662;SDS011;44330;51.360;6.686;2022-07-17T10:07:18;8.98;;;2.83;;
42662;SDS011;44330;51.360;6.686;2022-07-17T10:09:44;13.02;;;2.33;;
42662;SDS011;44330;51.360;6.686;2022-07-17T10:12:10;10.80;;;2.38;;
42662;SDS011;44330;51.360;6.686;2022-07-17T10:14:36;12.23;;;2.53;;
42662;SDS011;44330;51.360;6.686;2022-07-17T10:17:10;8.38;;;2.20;;
42662;SDS011;44330;51.360;6.686;2022-07-17T10:19:48;10.32;;;2.75;;
42662;SDS011;44330;51.360;6.686;2022-07-17T10:22:20;9.10;;;2.50;;
42662;SDS011;44330;51.360;6.686;2022-07-17T10:24:51;7.18;;;2.13;;
42662;SDS011;44330;51.360;6.686;2022-07-17T10:27:25;7.65;;;2.30;;
42662;SDS011;44330;51.360;6.686;2022-07-17T10:30:05;10.23;;;2.00;;
42662;SDS011;44330;51.360;6.686;2022-07-17T10:32:34;7.90;;;2.88;;
42662;SDS011;44330;51.360;6.686;2022-07-17T10:35:02;7.70;;;2.20;;
42662;SDS011;44330;51.360;6.686;2022-07-17T10:45:23;7.03;;;2.10;;
42662;SDS011;44330;51.360;6.686;2022-07-17T10:48:02;11.38;;;2.03;;
42662;SDS011;44330;51.360;6.686;2022-07-17T10:50:32;7.78;;;2.25;;
42662;SDS011;44330;51.360;6.686;2022-07-17T10:53:11;6.70;;;2.20;;
42662;SDS011;44330;51.360;6.686;2022-07-17T10:55:42;6.83;;;2.10;;
42662;SDS011;44330;51.360;6.686;2022-07-17T11:00:59;6.93;;;1.92;;
42662;SDS011;44330;51.360;6.686;2022-07-17T11:03:28;6.00;;;1.85;;
42662;SDS011;44330;51.360;6.686;2022-07-17T11:06:05;6.03;;;2.00;;
42662;SDS011;44330;51.360;6.686;2022-07-17T11:08:34;10.93;;;2.25;;
42662;SDS011;44330;51.360;6.686;2022-07-17T11:11:21;10.95;;;2.50;;
42662;SDS011;44330;51.360;6.686;2022-07-17T11:19:24;5.95;;;2.08;;
42662;SDS011;44330;51.360;6.686;2022-07-17T11:21:56;6.20;;;1.65;;
42662;SDS011;44330;51.360;6.686;2022-07-17T11:24:23;6.13;;;1.55;;
42662;SDS011;44330;51.360;6.686;2022-07-17T11:26:51;6.95;;;2.22;;
42662;SDS011;44330;51.360;6.686;2022-07-17T11:29:17;6.95;;;2.05;;
42662;SDS011;44330;51.360;6.686;2022-07-17T11:31:43;6.43;;;1.83;;
42662;SDS011;44330;51.360;6.686;2022-07-17T11:34:10;8.55;;;2.08;;
42662;SDS011;44330;51.360;6.686;2022-07-17T11:36:40;7.47;;;2.10;;
42662;SDS011;44330;51.360;6.686;2022-07-17T11:39:11;4.35;;;2.15;;
42662;SDS011;44330;51.360;6.686;2022-07-17T11:41:41;7.95;;;1.90;;
42662;SDS011;44330;51.360;6.686;2022-07-17T11:44:16;6.53;;;1.75;;
42662;SDS011;44330;51.360;6.686;2022-07-17T11:46:43;6.75;;;2.00;;
42662;SDS011;44330;51.360;6.686;2022-07-17T11:49:10;8.27;;;2.05;;
42662;SDS011;44330;51.360;6.686;2022-07-17T11:51:48;7.13;;;1.97;;
42662;SDS011;44330;51.360;6.686;2022-07-17T11:54:14;7.35;;;1.92;;
42662;SDS011;44330;51.360;6.686;2022-07-17T11:56:41;5.47;;;1.58;;
42662;SDS011;44330;51.360;6.686;2022-07-17T11:59:22;6.00;;;1.98;;
42662;SDS011;44330;51.360;6.686;2022-07-17T12:01:53;4.80;;;1.42;;
42662;SDS011;44330;51.360;6.686;2022-07-17T12:04:19;7.45;;;1.90;;
42662;SDS011;44330;51.360;6.686;2022-07-17T12:06:46;4.35;;;1.50;;
42662;SDS011;44330;51.360;6.686;2022-07-17T12:09:26;7.90;;;1.52;;
42662;SDS011;44330;51.360;6.686;2022-07-17T12:11:52;11.13;;;2.42;;
42662;SDS011;44330;51.360;6.686;2022-07-17T12:14:18;5.20;;;1.95;;
42662;SDS011;44330;51.360;6.686;2022-07-17T12:16:45;5.10;;;1.80;;
42662;SDS011;44330;51.360;6.686;2022-07-17T12:19:15;7.90;;;1.75;;
42662;SDS011;44330;51.360;6.686;2022-07-17T12:22:02;7.53;;;2.10;;
42662;SDS011;44330;51.360;6.686;2022-07-17T12:24:33;8.43;;;1.77;;
42662;SDS011;44330;51.360;6.686;2022-07-17T12:27:04;8.95;;;1.85;;
42662;SDS011;44330;51.360;6.686;2022-07-17T12:29:31;5.20;;;2.03;;
42662;SDS011;44330;51.360;6.686;2022-07-17T12:32:15;3.55;;;1.55;;
42662;SDS011;44330;51.360;6.686;2022-07-17T12:34:44;8.85;;;1.60;;
42662;SDS011;44330;51.360;6.686;2022-07-17T12:39:44;4.32;;;1.77;;
42662;SDS011;44330;51.360;6.686;2022-07-17T12:42:12;6.15;;;1.92;;
42662;SDS011;44330;51.360;6.686;2022-07-17T12:44:38;7.95;;;2.08;;
42662;SDS011;44330;51.360;6.686;2022-07-17T12:47:04;5.65;;;1.58;;
42662;SDS011;44330;51.360;6.686;2022-07-17T12:49:29;8.35;;;1.80;;
42662;SDS011;44330;51.360;6.686;2022-07-17T12:51:55;7.22;;;2.35;;
42662;SDS011;44330;51.360;6.686;2022-07-17T12:54:21;5.30;;;1.80;;
42662;SDS011;44330;51.360;6.686;2022-07-17T12:56:47;6.57;;;1.50;;
42662;SDS011;44330;51.360;6.686;2022-07-17T12:59:12;5.78;;;2.05;;
42662;SDS011;44330;51.360;6.686;2022-07-17T13:01:38;5.40;;;2.03;;
42662;SDS011;44330;51.360;6.686;2022-07-17T13:04:04;5.68;;;2.08;;
42662;SDS011;44330;51.360;6.686;2022-07-17T13:06:29;6.95;;;1.98;;
42662;SDS011;44330;51.360;6.686;2022-07-17T13:08:55;10.35;;;2.38;;
42662;SDS011;44330;51.360;6.686;2022-07-17T13:11:20;6.00;;;2.33;;
42662;SDS011;44330;51.360;6.686;2022-07-17T13:13:46;9.38;;;2.00;;
42662;SDS011;44330;51.360;6.686;2022-07-17T13:16:12;3.95;;;1.50;;
42662;SDS011;44330;51.360;6.686;2022-07-17T13:18:38;5.00;;;2.05;;
42662;SDS011;44330;51.360;6.686;2022-07-17T13:21:05;6.60;;;2.00;;
42662;SDS011;44330;51.360;6.686;2022-07-17T13:23:31;7.47;;;1.85;;
42662;SDS011;44330;51.360;6.686;2022-07-17T13:25:59;5.93;;;2.10;;
42662;SDS011;44330;51.360;6.686;2022-07-17T13:28:25;4.80;;;1.75;;
42662;SDS011;44330;51.360;6.686;2022-07-17T13:30:51;6.47;;;1.80;;
42662;SDS011;44330;51.360;6.686;2022-07-17T13:33:16;3.92;;;1.88;;
42662;SDS011;44330;51.360;6.686;2022-07-17T13:35:42;4.38;;;1.95;;
42662;SDS011;44330;51.360;6.686;2022-07-17T13:38:08;6.85;;;2.40;;
42662;SDS011;44330;51.360;6.686;2022-07-17T13:40:34;4.25;;;1.83;;
42662;SDS011;44330;51.360;6.686;2022-07-17T13:43:00;7.20;;;2.40;;
42662;SDS011;44330;51.360;6.686;2022-07-17T13:45:27;9.07;;;2.20;;
42662;SDS011;44330;51.360;6.686;2022-07-17T13:47:53;5.00;;;2.00;;
42662;SDS011;44330;51.360;6.686;2022-07-17T13:50:20;10.50;;;2.20;;
42662;SDS011;44330;51.360;6.686;2022-07-17T13:52:45;10.27;;;2.25;;
42662;SDS011;44330;51.360;6.686;2022-07-17T13:55:11;3.65;;;1.77;;
42662;SDS011;44330;51.360;6.686;2022-07-17T13:57:37;6.18;;;2.13;;
42662;SDS011;44330;51.360;6.686;2022-07-17T14:00:03;4.45;;;2.15;;
42662;SDS011;44330;51.360;6.686;2022-07-17T14:02:30;5.20;;;1.80;;
42662;SDS011;44330;51.360;6.686;2022-07-17T14:04:55;5.68;;;2.10;;
42662;SDS011;44330;51.360;6.686;2022-07-17T14:07:21;8.57;;;2.15;;
42662;SDS011;44330;51.360;6.686;2022-07-17T14:09:46;6.53;;;2.15;;
42662;SDS011;44330;51.360;6.686;2022-07-17T14:12:12;6.97;;;2.35;;
42662;SDS011;44330;51.360;6.686;2022-07-17T14:14:38;5.57;;;2.13;;
42662;SDS011;44330;51.360;6.686;2022-07-17T14:17:03;5.97;;;2.33;;
42662;SDS011;44330;51.360;6.686;2022-07-17T14:19:29;4.53;;;2.17;;
42662;SDS011;44330;51.360;6.686;2022-07-17T14:21:55;4.25;;;2.03;;
42662;SDS011;44330;51.360;6.686;2022-07-17T14:24:20;8.10;;;2.25;;
42662;SDS011;44330;51.360;6.686;2022-07-17T14:26:46;5.05;;;2.28;;
42662;SDS011;44330;51.360;6.686;2022-07-17T14:29:13;10.73;;;2.65;;
42662;SDS011;44330;51.360;6.686;2022-07-17T14:31:39;8.10;;;2.70;;
42662;SDS011;44330;51.360;6.686;2022-07-17T14:34:05;6.90;;;2.72;;
42662;SDS011;44330;51.360;6.686;2022-07-17T14:36:31;8.43;;;2.72;;
42662;SDS011;44330;51.360;6.686;2022-07-17T14:38:56;14.55;;;3.72;;
42662;SDS011;44330;51.360;6.686;2022-07-17T14:41:22;6.65;;;3.30;;
42662;SDS011;44330;51.360;6.686;2022-07-17T14:43:48;10.30;;;3.28;;
42662;SDS011;44330;51.360;6.686;2022-07-17T14:46:14;6.43;;;3.22;;
42662;SDS011;44330;51.360;6.686;2022-07-17T14:48:39;7.18;;;3.05;;
42662;SDS011;44330;51.360;6.686;2022-07-17T14:51:05;15.65;;;3.88;;
42662;SDS011;44330;51.360;6.686;2022-07-17T14:53:31;7.75;;;3.00;;
42662;SDS011;44330;51.360;6.686;2022-07-17T14:55:56;10.40;;;3.63;;
42662;SDS011;44330;51.360;6.686;2022-07-17T14:58:22;11.15;;;3.40;;
42662;SDS011;44330;51.360;6.686;2022-07-17T15:00:48;8.02;;;3.53;;
42662;SDS011;44330;51.360;6.686;2022-07-17T15:03:13;10.55;;;3.42;;
42662;SDS011;44330;51.360;6.686;2022-07-17T15:05:39;7.13;;;3.42;;
42662;SDS011;44330;51.360;6.686;2022-07-17T15:08:05;8.90;;;3.50;;